Time;durP1;ratioP1;P1;durP2;ratioP2;P2;SDS_P1;SDS_P2;PMS_P1;PMS_P2;Temp;Humidity;BMP_temperature;BMP_pressure;BME280_temperature;BME280_humidity;BME280_pressure;Samples;Min_cycle;Max_cycle;Signal;HPM_P1;HPM_P2
2021/12/30 00:01:35;;;;;;;;;1.00;0.00;;;;;16.09;77.85;101356.38;5080400;28;45587;-75
2021/12/30 00:04:01;;;;;;;;;0.00;0.00;;;;;16.09;77.91;101352.81;5080208;28;45989;-76
2021/12/30 00:06:26;;;;;;;;;0.00;0.00;;;;;16.10;77.77;101358.13;5080112;28;45322;-76
2021/12/30 00:08:52;;;;;;;;;0.00;0.00;;;;;16.10;77.82;101363.47;5080218;28;45141;-75
2021/12/30 00:11:17;;;;;;;;;2.00;0.00;;;;;16.12;77.63;101369.66;5079595;28;45546;-76
2021/12/30 00:13:46;;;;;;;;;0.00;0.00;;;;;16.12;77.99;101369.66;5076406;28;47029;-76
2021/12/30 00:16:12;;;;;;;;;0.00;0.00;;;;;16.12;77.92;101371.44;5062135;28;45343;-76
2021/12/30 00:18:38;;;;;;;;;2.00;0.00;;;;;16.10;77.78;101358.13;5080036;28;45264;-76
2021/12/30 00:21:03;;;;;;;;;0.00;0.00;;;;;16.09;77.64;101356.38;5079411;28;53603;-76
2021/12/30 00:23:28;;;;;;;;;0.00;0.00;;;;;16.08;77.96;101362.56;5078448;28;47491;-76
2021/12/30 00:25:54;;;;;;;;;0.00;0.00;;;;;16.11;77.66;101359.91;5078981;27;54760;-76
2021/12/30 00:28:22;;;;;;;;;0.00;0.00;;;;;16.09;77.64;101360.81;5079349;28;54150;-77
2021/12/30 00:30:48;;;;;;;;;0.00;0.00;;;;;16.10;77.42;101363.47;5080106;28;45256;-76
2021/12/30 00:33:16;;;;;;;;;0.00;0.00;;;;;16.12;77.82;101361.66;5078472;28;46379;-76
2021/12/30 00:35:42;;;;;;;;;0.33;0.33;;;;;16.09;78.00;101356.38;5078694;28;45454;-76
2021/12/30 00:38:07;;;;;;;;;2.00;1.00;;;;;16.11;77.84;101359.00;5079367;28;58186;-76
2021/12/30 00:40:33;;;;;;;;;0.00;0.00;;;;;16.09;77.61;101366.13;5080188;28;45366;-76
2021/12/30 00:43:02;;;;;;;;;0.00;0.00;;;;;16.08;77.89;101359.00;5079500;28;47367;-76
2021/12/30 00:45:28;;;;;;;;;0.00;0.00;;;;;16.10;77.57;101378.56;5079580;28;45162;-76
2021/12/30 00:47:53;;;;;;;;;0.00;0.00;;;;;16.08;77.88;101373.22;5079915;28;45449;-76
2021/12/30 00:50:19;;;;;;;;;0.00;0.00;;;;;16.09;77.71;101374.13;5079176;28;52699;-76
2021/12/30 00:52:44;;;;;;;;;0.00;0.00;;;;;16.08;77.92;101380.31;5078345;28;45545;-76
2021/12/30 00:55:12;;;;;;;;;0.00;0.00;;;;;16.07;77.95;101379.44;5079203;28;45314;-77
2021/12/30 00:57:37;;;;;;;;;0.33;0.33;;;;;16.08;78.03;101380.31;5079555;28;45307;-76
2021/12/30 01:00:07;;;;;;;;;0.00;0.00;;;;;16.07;78.01;101390.09;5079372;28;45330;-76
2021/12/30 01:02:33;;;;;;;;;0.67;0.67;;;;;16.02;78.25;101383.88;5078965;27;46449;-76
2021/12/30 01:04:58;;;;;;;;;0.00;0.00;;;;;16.03;77.75;101391.00;5079372;28;46132;-76
2021/12/30 01:07:24;;;;;;;;;1.33;0.00;;;;;16.06;78.11;101398.09;5078679;28;54880;-76
2021/12/30 01:09:49;;;;;;;;;0.00;0.00;;;;;16.00;78.40;101391.00;5078796;28;52849;-75
2021/12/30 01:12:15;;;;;;;;;0.00;0.00;;;;;16.05;78.25;101401.66;5077845;28;46403;-76
2021/12/30 01:14:45;;;;;;;;;1.00;1.00;;;;;15.99;77.97;101410.56;5079270;28;45395;-76
2021/12/30 01:20:03;;;;;;;;;0.33;0.33;;;;;15.98;78.25;101416.78;5054699;28;45409;-76
2021/12/30 01:22:28;;;;;;;;;0.67;0.67;;;;;16.01;78.30;101423.84;5078569;28;45433;-76
2021/12/30 01:24:54;;;;;;;;;3.00;1.00;;;;;15.92;78.91;101424.75;5078289;28;60301;-76
2021/12/30 01:27:21;;;;;;;;;1.33;1.33;;;;;15.96;78.83;101426.53;5079031;28;45141;-78
2021/12/30 01:29:47;;;;;;;;;3.33;0.67;;;;;15.91;78.76;101426.53;5079159;28;46059;-76
2021/12/30 01:32:12;;;;;;;;;1.33;1.33;;;;;15.93;79.30;101426.56;5077342;28;46289;-76
2021/12/30 01:34:38;;;;;;;;;1.33;1.00;;;;;15.93;79.20;101434.53;5078804;28;45437;-76
2021/12/30 01:37:04;;;;;;;;;1.00;1.00;;;;;15.89;79.20;101427.44;5078779;28;45389;-76
2021/12/30 01:39:31;;;;;;;;;1.00;1.00;;;;;15.89;78.96;101430.09;5079060;28;45475;-76
2021/12/30 01:41:58;;;;;;;;;1.00;1.00;;;;;15.94;79.13;101436.31;5078242;27;46960;-76
2021/12/30 01:44:23;;;;;;;;;2.33;2.00;;;;;15.95;78.91;101449.63;5078859;28;45267;-77
2021/12/30 01:46:55;;;;;;;;;1.67;1.67;;;;;15.96;79.03;101446.06;5081276;28;45206;-77
2021/12/30 01:49:21;;;;;;;;;2.00;0.00;;;;;15.99;79.22;101447.84;5080606;28;45556;-76
2021/12/30 01:51:47;;;;;;;;;2.33;1.00;;;;;15.95;79.10;101435.41;5077437;28;46640;-76
2021/12/30 01:54:12;;;;;;;;;0.00;0.00;;;;;16.00;79.17;101438.06;5077931;28;45320;-76
2021/12/30 01:56:38;;;;;;;;;2.00;1.00;;;;;15.96;79.49;101446.06;5078363;28;45452;-76
2021/12/30 01:59:03;;;;;;;;;1.00;1.00;;;;;16.00;79.37;101457.59;5078609;28;45238;-76
2021/12/30 02:01:29;;;;;;;;;1.67;1.00;;;;;16.01;79.08;101448.72;5078243;28;46498;-77
2021/12/30 02:03:55;;;;;;;;;0.00;0.00;;;;;16.05;78.93;101460.28;5078564;27;45220;-76
2021/12/30 02:06:20;;;;;;;;;0.00;0.00;;;;;16.01;79.37;101451.38;5078298;28;45677;-75
2021/12/30 02:08:46;;;;;;;;;1.67;1.00;;;;;16.02;79.06;101450.50;5078435;28;45291;-75
2021/12/30 02:11:14;;;;;;;;;0.33;0.33;;;;;16.03;78.92;101452.25;5077639;28;49896;-76
2021/12/30 02:13:39;;;;;;;;;0.00;0.00;;;;;16.06;78.98;101462.03;5059313;28;45355;-76
2021/12/30 02:16:05;;;;;;;;;0.00;0.00;;;;;16.06;79.38;101457.59;5077958;27;49887;-75
2021/12/30 02:18:30;;;;;;;;;0.00;0.00;;;;;16.08;79.07;101454.91;5078562;28;45376;-76
2021/12/30 02:20:59;;;;;;;;;0.00;0.00;;;;;16.03;79.28;101452.25;5077781;28;45225;-74
2021/12/30 02:23:35;;;;;;;;;1.00;1.00;;;;;16.05;79.07;101461.16;5076870;28;45283;-75
2021/12/30 02:26:13;;;;;;;;;0.00;0.00;;;;;16.01;78.70;101462.03;5078125;28;45247;-75
2021/12/30 02:28:38;;;;;;;;;0.00;0.00;;;;;16.07;79.35;101469.13;5078274;28;45598;-76
2021/12/30 02:31:07;;;;;;;;;3.00;0.00;;;;;16.07;78.81;101466.47;5077903;28;46396;-75
2021/12/30 02:33:32;;;;;;;;;0.67;0.67;;;;;16.08;79.01;101473.56;5077896;28;45298;-77
2021/12/30 02:36:01;;;;;;;;;1.00;1.00;;;;;16.08;79.01;101476.22;5076582;28;50853;-75
2021/12/30 02:38:26;;;;;;;;;0.00;0.00;;;;;16.07;78.63;101474.47;5077655;28;45659;-75
2021/12/30 02:40:57;;;;;;;;;1.00;1.00;;;;;16.09;78.77;101473.59;5077940;28;47609;-76
2021/12/30 02:43:24;;;;;;;;;0.00;0.00;;;;;16.09;78.77;101481.56;5076599;28;45447;-75
2021/12/30 02:45:52;;;;;;;;;1.67;0.33;;;;;16.12;78.75;101488.66;5077832;28;45173;-75
2021/12/30 02:48:23;;;;;;;;;0.00;0.00;;;;;16.09;78.68;101497.56;5077742;27;45480;-75
2021/12/30 02:50:49;;;;;;;;;0.00;0.00;;;;;16.12;78.48;101499.31;5077505;27;47278;-76
2021/12/30 02:53:14;;;;;;;;;0.00;0.00;;;;;16.13;78.47;101493.09;5077468;28;45441;-75
2021/12/30 02:55:40;;;;;;;;;0.00;0.00;;;;;16.13;78.48;101499.31;5077685;28;45401;-75
2021/12/30 02:58:06;;;;;;;;;0.00;0.00;;;;;16.15;78.26;101499.31;5077761;28;45319;-76
2021/12/30 03:00:31;;;;;;;;;1.00;0.00;;;;;16.13;78.50;101512.63;5077427;28;47453;-76
2021/12/30 03:02:57;;;;;;;;;0.00;0.00;;;;;16.13;78.54;101501.09;5075794;28;56852;-75
2021/12/30 03:05:24;;;;;;;;;0.00;0.00;;;;;16.13;78.36;101501.97;5076930;28;45436;-75
2021/12/30 03:07:49;;;;;;;;;0.00;0.00;;;;;16.11;78.41;101492.22;5077393;27;45523;-75
2021/12/30 03:10:17;;;;;;;;;1.00;0.00;;;;;16.12;78.18;101504.66;5185494;22;45698;-77
2021/12/30 03:12:42;;;;;;;;;1.00;0.00;;;;;16.13;77.97;101498.44;5079796;27;45236;-75
2021/12/30 03:15:12;;;;;;;;;0.00;0.00;;;;;16.13;78.23;101496.66;5098017;27;45231;-75
2021/12/30 03:17:38;;;;;;;;;0.00;0.00;;;;;16.13;78.12;101504.63;5098035;27;45693;-76
2021/12/30 03:20:08;;;;;;;;;0.00;0.00;;;;;16.12;77.95;101494.88;5097636;27;47385;-76
2021/12/30 03:22:35;;;;;;;;;1.00;0.00;;;;;16.12;77.82;101492.22;5097508;27;45752;-75
2021/12/30 03:25:00;;;;;;;;;1.00;0.00;;;;;16.12;77.95;101496.66;5097976;27;45370;-75
2021/12/30 03:27:25;;;;;;;;;0.00;0.00;;;;;16.11;77.97;101511.75;5098142;27;45316;-76
2021/12/30 03:29:51;;;;;;;;;0.00;0.00;;;;;16.11;77.79;101501.09;5097203;27;63649;-75
2021/12/30 03:32:16;;;;;;;;;0.00;0.00;;;;;16.10;77.81;101512.66;5097799;27;45322;-74
2021/12/30 03:34:42;;;;;;;;;0.00;0.00;;;;;16.10;77.59;101487.78;5097780;27;45363;-75
2021/12/30 03:37:07;;;;;;;;;0.67;0.00;;;;;16.08;77.96;101497.53;5097586;27;50473;-75
2021/12/30 03:39:32;;;;;;;;;0.00;0.00;;;;;16.09;77.86;101496.69;5097601;27;46466;-75
2021/12/30 03:41:59;;;;;;;;;0.67;0.00;;;;;16.08;77.97;101487.75;5097287;27;50838;-76
2021/12/30 03:44:24;;;;;;;;;0.00;0.00;;;;;16.04;77.78;101485.13;5097813;27;45406;-75
2021/12/30 03:46:50;;;;;;;;;0.00;0.00;;;;;16.08;77.70;101494.88;5097739;27;45368;-75
2021/12/30 03:49:15;;;;;;;;;0.00;0.00;;;;;16.08;77.84;101487.75;5097500;27;46436;-76
2021/12/30 03:51:40;;;;;;;;;0.00;0.00;;;;;16.09;77.64;101478.03;5097087;27;47997;-74
2021/12/30 03:54:06;;;;;;;;;0.00;0.00;;;;;16.08;77.77;101485.09;5097441;27;45166;-75
2021/12/30 03:56:32;;;;;;;;;0.00;0.00;;;;;16.07;77.58;101480.66;5097504;27;45529;-75
2021/12/30 03:58:57;;;;;;;;;1.00;1.00;;;;;16.06;77.58;101483.34;5097230;27;47160;-75
2021/12/30 04:01:24;;;;;;;;;0.00;0.00;;;;;16.05;77.52;101485.13;5096806;27;56195;-75
2021/12/30 04:03:49;;;;;;;;;1.00;0.00;;;;;16.09;77.88;101492.22;5097438;27;45148;-75
2021/12/30 04:06:15;;;;;;;;;0.00;0.00;;;;;16.07;77.77;101488.66;5097269;27;45410;-75
2021/12/30 04:08:40;;;;;;;;;0.00;0.00;;;;;16.06;77.59;101478.91;5096980;27;46213;-76
2021/12/30 04:11:06;;;;;;;;;0.00;0.00;;;;;16.10;77.85;101491.34;5096726;27;45284;-75
2021/12/30 04:13:31;;;;;;;;;0.00;0.00;;;;;16.12;77.59;101489.53;5097215;27;45798;-76
2021/12/30 04:15:57;;;;;;;;;2.67;0.00;;;;;16.11;77.69;101495.78;5078486;27;54265;-75
2021/12/30 04:18:22;;;;;;;;;0.00;0.00;;;;;16.11;77.62;101501.09;5099729;27;46421;-75
2021/12/30 04:20:48;;;;;;;;;0.00;0.00;;;;;16.07;77.31;101491.31;5100051;27;59904;-75
2021/12/30 04:23:14;;;;;;;;;0.00;0.00;;;;;16.12;77.57;101497.53;5082254;27;47017;-74
2021/12/30 04:25:39;;;;;;;;;0.00;0.00;;;;;16.14;77.58;101498.44;5082552;27;45438;-75
2021/12/30 04:28:04;;;;;;;;;0.00;0.00;;;;;16.13;77.45;101493.97;5099705;27;61341;-75
2021/12/30 04:30:30;;;;;;;;;1.00;0.00;;;;;16.16;77.62;101487.78;5099953;27;60234;-75
2021/12/30 04:32:55;;;;;;;;;3.00;0.00;;;;;16.18;77.57;101478.00;5100073;27;54222;-75
2021/12/30 04:35:21;;;;;;;;;0.00;0.00;;;;;16.18;77.30;101478.88;5100417;27;52545;-75
2021/12/30 04:37:46;;;;;;;;;1.00;0.00;;;;;16.18;77.14;101470.88;5099631;27;61872;-75
2021/12/30 04:40:12;;;;;;;;;0.00;0.00;;;;;16.17;77.09;101473.56;5100013;27;57098;-75
2021/12/30 04:42:37;;;;;;;;;0.00;0.00;;;;;16.23;76.97;101486.88;5082290;27;45292;-75
2021/12/30 04:45:04;;;;;;;;;1.00;0.00;;;;;16.22;77.30;101479.78;5100481;27;45153;-75
2021/12/30 04:47:29;;;;;;;;;0.00;0.00;;;;;16.22;76.70;101488.66;5102527;27;47295;-74
2021/12/30 04:49:57;;;;;;;;;0.33;0.00;;;;;16.27;76.99;101498.41;5100069;27;45310;-75
2021/12/30 04:52:22;;;;;;;;;0.00;0.00;;;;;16.23;77.06;101498.41;5100383;27;45480;-75
2021/12/30 04:54:48;;;;;;;;;2.00;0.33;;;;;16.25;76.91;101511.75;5099873;27;45335;-75
2021/12/30 04:57:14;;;;;;;;;1.33;0.00;;;;;16.23;76.83;101511.72;5099965;27;47460;-76
2021/12/30 04:59:39;;;;;;;;;0.00;0.00;;;;;16.18;76.67;101512.63;5099596;27;54718;-75
2021/12/30 05:02:05;;;;;;;;;1.00;0.00;;;;;16.14;76.62;101511.75;5100214;27;45367;-75
2021/12/30 05:04:30;;;;;;;;;0.00;0.00;;;;;16.09;76.69;101524.19;5100191;27;45319;-75
2021/12/30 05:06:55;;;;;;;;;0.00;0.00;;;;;16.05;76.88;101525.09;5099828;27;46281;-75
2021/12/30 05:09:21;;;;;;;;;0.00;0.00;;;;;16.05;76.13;101530.41;5099489;27;54718;-75
2021/12/30 05:11:46;;;;;;;;;0.00;0.00;;;;;16.04;76.52;101535.75;5099391;27;54923;-76
2021/12/30 05:14:11;;;;;;;;;2.00;0.00;;;;;16.01;76.57;101533.97;5099434;27;48889;-75
2021/12/30 05:16:37;;;;;;;;;0.00;0.00;;;;;16.03;76.81;101536.63;5099333;27;57001;-74
2021/12/30 05:19:03;;;;;;;;;0.00;0.00;;;;;16.06;76.71;101528.63;5099545;27;45329;-76
2021/12/30 05:21:28;;;;;;;;;0.00;0.00;;;;;16.08;76.34;101529.50;5099989;27;45211;-75
2021/12/30 05:23:53;;;;;;;;;0.00;0.00;;;;;16.08;76.48;101529.50;5099446;27;46097;-75
2021/12/30 05:26:19;;;;;;;;;3.00;0.33;;;;;16.07;76.33;101522.41;5099287;27;50844;-75
2021/12/30 05:28:44;;;;;;;;;2.00;0.00;;;;;16.06;76.25;101528.63;5098489;27;45409;-75
2021/12/30 05:31:10;;;;;;;;;1.00;0.00;;;;;16.07;76.18;101525.97;5099850;27;45146;-75
2021/12/30 05:33:35;;;;;;;;;0.67;0.00;;;;;16.02;76.39;101529.50;5099421;27;46803;-76
2021/12/30 05:36:01;;;;;;;;;1.33;0.00;;;;;16.02;76.61;101534.84;5098048;27;46605;-75
2021/12/30 05:38:26;;;;;;;;;1.00;0.67;;;;;15.96;76.56;101535.72;5098719;27;59334;-75
2021/12/30 05:40:51;;;;;;;;;1.33;0.00;;;;;15.93;76.49;101565.06;5099033;27;53278;-75
2021/12/30 05:43:17;;;;;;;;;0.67;0.00;;;;;15.89;76.53;101557.94;5098785;27;56465;-75
2021/12/30 05:45:42;;;;;;;;;0.00;0.00;;;;;15.85;76.50;101561.47;5099218;27;47481;-75
2021/12/30 05:48:08;;;;;;;;;0.00;0.00;;;;;15.81;76.77;101567.69;5099319;27;45296;-75
2021/12/30 05:50:33;;;;;;;;;0.00;0.00;;;;;15.78;76.91;101567.69;5099494;27;45487;-74
2021/12/30 05:52:59;;;;;;;;;0.67;0.00;;;;;15.70;76.60;101559.66;5098647;27;52511;-75
2021/12/30 05:55:24;;;;;;;;;0.33;0.00;;;;;15.72;76.86;101568.56;5098933;27;46518;-74
2021/12/30 05:57:52;;;;;;;;;0.33;0.33;;;;;15.68;76.73;101577.44;5098844;27;54749;-74
2021/12/30 06:00:18;;;;;;;;;0.00;0.00;;;;;15.65;77.23;101588.94;5099238;27;45169;-75
2021/12/30 06:02:44;;;;;;;;;1.33;0.00;;;;;15.62;76.99;101582.72;5099448;27;45211;-75
2021/12/30 06:05:09;;;;;;;;;1.67;1.00;;;;;15.58;76.94;101575.59;5098932;27;47477;-75
2021/12/30 06:07:35;;;;;;;;;2.00;0.00;;;;;15.56;77.00;101583.59;5098896;27;45309;-75
2021/12/30 06:10:00;;;;;;;;;4.00;0.33;;;;;15.54;77.04;101592.44;5098760;27;45473;-75
2021/12/30 06:12:25;;;;;;;;;2.33;0.67;;;;;15.50;77.55;101578.25;5098452;27;56270;-75
2021/12/30 06:14:51;;;;;;;;;2.67;0.33;;;;;15.49;77.21;101587.09;5080575;27;45540;-75
2021/12/30 06:17:16;;;;;;;;;4.00;1.00;;;;;15.46;77.08;101577.34;5098867;27;45388;-75
2021/12/30 06:19:45;;;;;;;;;5.00;0.33;;;;;15.44;77.15;101580.88;5098409;27;52921;-75
2021/12/30 06:22:11;;;;;;;;;1.67;0.67;;;;;15.43;77.20;101582.66;5098721;27;45398;-76
2021/12/30 06:24:36;;;;;;;;;5.00;1.00;;;;;15.41;76.99;101576.44;5098610;27;46047;-75
2021/12/30 06:27:02;;;;;;;;;1.00;1.00;;;;;15.37;76.93;101582.63;5080167;27;45266;-75
2021/12/30 06:29:27;;;;;;;;;1.67;1.00;;;;;15.38;77.00;101586.19;5098522;27;45267;-74
2021/12/30 06:31:53;;;;;;;;;2.33;2.00;;;;;15.31;76.96;101587.06;5098368;27;50191;-74
2021/12/30 06:34:18;;;;;;;;;5.00;1.00;;;;;15.30;76.99;101579.97;5079540;27;62594;-74
2021/12/30 06:36:44;;;;;;;;;0.00;0.00;;;;;15.32;77.43;101584.38;5097915;27;58809;-74
2021/12/30 06:39:09;;;;;;;;;2.00;0.33;;;;;15.30;76.89;101607.44;5098291;27;47403;-74
2021/12/30 06:41:34;;;;;;;;;5.33;1.33;;;;;15.29;77.23;101615.44;5098290;27;46112;-75
2021/12/30 06:44:00;;;;;;;;;3.00;1.00;;;;;15.28;76.95;101605.66;5098361;27;46264;-75
2021/12/30 06:46:25;;;;;;;;;1.33;1.00;;;;;15.28;77.01;101613.63;5097806;27;57854;-75
2021/12/30 06:48:51;;;;;;;;;2.00;1.00;;;;;15.26;77.16;101610.97;5098317;27;45757;-75
2021/12/30 06:51:21;;;;;;;;;4.00;1.00;;;;;15.26;76.90;101615.41;5097886;27;53021;-74
2021/12/30 06:53:47;;;;;;;;;5.00;1.67;;;;;15.23;77.15;101613.59;5097959;27;46568;-76
2021/12/30 06:56:12;;;;;;;;;3.00;1.00;;;;;15.22;77.43;101617.16;5097739;27;53551;-76
2021/12/30 06:58:38;;;;;;;;;6.00;3.00;;;;;15.21;77.13;101623.38;5079963;27;45287;-75
2021/12/30 07:01:03;;;;;;;;;2.33;1.67;;;;;15.20;77.14;101638.44;5097949;27;47321;-75
2021/12/30 07:03:29;;;;;;;;;3.33;1.00;;;;;15.19;76.96;101643.78;5098128;27;46660;-75
2021/12/30 07:05:55;;;;;;;;;4.00;1.00;;;;;15.13;77.51;101627.78;5079924;27;45446;-75
2021/12/30 07:08:21;;;;;;;;;5.00;2.00;;;;;15.15;76.92;101642.84;5098102;27;45350;-75
2021/12/30 07:10:46;;;;;;;;;4.67;1.00;;;;;15.15;76.76;101634.88;5079589;27;45411;-75
2021/12/30 07:13:11;;;;;;;;;4.00;2.00;;;;;15.14;76.76;101638.41;5097208;27;62009;-75
2021/12/30 07:15:37;;;;;;;;;4.00;2.00;;;;;15.18;76.97;101634.03;5097631;27;58302;-77
2021/12/30 07:18:03;;;;;;;;;7.33;2.00;;;;;15.20;76.77;101648.19;5098262;27;45310;-75
2021/12/30 07:20:28;;;;;;;;;7.00;1.00;;;;;15.22;76.71;101645.53;5098352;27;45358;-74
2021/12/30 07:22:53;;;;;;;;;3.00;1.33;;;;;15.26;76.99;101644.69;5097065;27;61152;-75
2021/12/30 07:25:19;;;;;;;;;4.00;2.00;;;;;15.29;76.84;101642.03;5097625;27;48151;-75
2021/12/30 07:27:48;;;;;;;;;4.33;2.67;;;;;15.34;76.63;101645.59;5097355;27;53452;-75
2021/12/30 07:30:14;;;;;;;;;3.67;1.00;;;;;15.37;76.67;101651.81;5098085;27;45264;-75
2021/12/30 07:32:39;;;;;;;;;6.00;3.00;;;;;15.37;76.15;101649.16;5097476;27;46215;-75
2021/12/30 07:35:05;;;;;;;;;4.00;1.00;;;;;15.42;75.58;101660.72;5097494;27;45288;-75
2021/12/30 07:37:30;;;;;;;;;5.00;3.00;;;;;15.45;75.47;101658.09;5097702;27;45234;-75
2021/12/30 07:39:56;;;;;;;;;2.00;2.00;;;;;15.47;75.74;101660.75;5097325;27;46998;-75
2021/12/30 07:42:21;;;;;;;;;2.33;1.33;;;;;15.50;75.58;101667.84;5097365;27;51798;-77
2021/12/30 07:44:46;;;;;;;;;6.67;2.00;;;;;15.51;75.32;101665.19;5097712;27;45350;-76
2021/12/30 07:47:12;;;;;;;;;4.67;1.00;;;;;15.48;75.63;101649.19;5096992;27;53902;-75
2021/12/30 07:49:37;;;;;;;;;5.00;2.33;;;;;15.53;75.13;101663.41;5097142;27;54278;-75
2021/12/30 07:52:06;;;;;;;;;2.33;1.33;;;;;15.54;74.99;101665.19;5097669;27;61323;-76
2021/12/30 07:54:31;;;;;;;;;5.00;2.00;;;;;15.53;74.97;101679.41;5100988;27;45292;-77
2021/12/30 07:56:57;;;;;;;;;3.67;2.00;;;;;15.54;74.82;101681.16;5101096;27;45616;-75
2021/12/30 07:59:22;;;;;;;;;3.00;3.00;;;;;15.55;74.79;101690.03;5100894;27;48887;-75
2021/12/30 08:01:48;;;;;;;;;5.33;2.00;;;;;15.55;75.16;101701.56;5100446;27;58383;-74
2021/12/30 08:04:13;;;;;;;;;7.33;1.00;;;;;15.55;74.79;101698.91;5101038;27;45234;-75
2021/12/30 08:06:39;;;;;;;;;4.67;2.00;;;;;15.56;74.34;101702.50;5100392;27;53986;-75
2021/12/30 08:09:04;;;;;;;;;6.33;1.33;;;;;15.57;74.82;101704.25;5100950;27;45582;-75
2021/12/30 08:11:30;;;;;;;;;4.33;2.00;;;;;15.55;74.57;101703.34;5100467;27;46426;-75
2021/12/30 08:13:55;;;;;;;;;7.00;2.33;;;;;15.60;74.91;101715.78;5100119;27;56788;-75
2021/12/30 08:16:21;;;;;;;;;5.00;1.00;;;;;15.61;73.77;101730.03;5101064;27;45360;-75
2021/12/30 08:18:46;;;;;;;;;6.00;2.00;;;;;15.53;74.57;101715.78;5100175;27;53856;-75
2021/12/30 08:21:11;;;;;;;;;3.00;3.00;;;;;15.58;74.00;101730.00;5099953;27;55664;-75
2021/12/30 08:23:37;;;;;;;;;5.00;1.00;;;;;15.60;74.18;101729.09;5100344;27;45394;-75
2021/12/30 08:26:05;;;;;;;;;7.00;2.00;;;;;15.57;74.50;101730.88;5100720;27;45288;-76
2021/12/30 08:28:30;;;;;;;;;5.33;2.00;;;;;15.60;73.86;101737.09;5100941;27;45363;-76
2021/12/30 08:30:56;;;;;;;;;4.33;2.00;;;;;15.54;73.98;101736.19;5100386;27;45828;-74
2021/12/30 08:33:21;;;;;;;;;7.33;3.00;;;;;15.52;74.47;101727.31;5100456;27;52611;-75
2021/12/30 08:35:47;;;;;;;;;10.67;3.00;;;;;15.54;74.00;101741.50;5100035;27;52779;-74
2021/12/30 08:38:13;;;;;;;;;5.33;2.00;;;;;15.59;74.08;101745.97;5100478;27;45562;-75
2021/12/30 08:40:39;;;;;;;;;6.33;2.00;;;;;15.58;74.13;101752.19;5100070;27;47446;-75
2021/12/30 08:43:06;;;;;;;;;8.33;2.00;;;;;15.58;73.89;101756.63;5100001;27;45434;-75
2021/12/30 08:45:32;;;;;;;;;3.00;1.67;;;;;15.59;73.70;101763.72;5100399;27;45362;-75
2021/12/30 08:47:57;;;;;;;;;6.33;3.67;;;;;15.62;73.89;101758.41;5100443;27;45262;-76
2021/12/30 08:50:23;;;;;;;;;5.33;2.33;;;;;15.62;73.91;101751.31;5099577;27;59038;-74
2021/12/30 08:52:48;;;;;;;;;8.00;4.00;;;;;15.63;74.07;101755.78;5100022;27;45319;-75
2021/12/30 08:55:14;;;;;;;;;7.67;3.00;;;;;15.63;73.62;101749.59;5100110;27;45311;-75
2021/12/30 08:57:40;;;;;;;;;7.00;2.00;;;;;15.65;73.74;101753.13;5099958;27;45236;-75
2021/12/30 09:00:11;;;;;;;;;5.33;3.33;;;;;15.65;73.73;101763.78;5081582;27;47585;-75
2021/12/30 09:02:37;;;;;;;;;4.00;0.00;;;;;15.65;73.99;101753.13;5099837;27;45278;-75
2021/12/30 09:05:02;;;;;;;;;7.00;3.00;;;;;15.67;73.66;101759.38;5098950;27;45515;-75
2021/12/30 09:07:28;;;;;;;;;7.67;2.00;;;;;15.68;74.02;101756.69;5100125;27;45292;-75
2021/12/30 09:09:53;;;;;;;;;10.67;3.00;;;;;15.69;73.75;101762.91;5099554;27;46275;-75
2021/12/30 09:12:19;;;;;;;;;7.67;3.00;;;;;15.71;73.73;101771.78;5099881;27;45314;-75
2021/12/30 09:14:44;;;;;;;;;5.00;3.33;;;;;15.68;74.17;101758.47;5099887;27;45302;-76
2021/12/30 09:17:09;;;;;;;;;5.33;2.67;;;;;15.76;73.88;101769.16;5099252;27;50841;-75
2021/12/30 09:19:35;;;;;;;;;6.33;3.00;;;;;15.80;73.75;101773.63;5099388;27;54407;-75
2021/12/30 09:22:00;;;;;;;;;5.67;3.00;;;;;15.84;73.48;101776.31;5064421;27;45335;-75
2021/12/30 09:24:26;;;;;;;;;7.00;3.67;;;;;15.81;73.90;101765.63;5099623;27;45366;-76
2021/12/30 09:26:51;;;;;;;;;8.00;3.00;;;;;15.90;73.68;101776.31;5099474;27;49589;-75
2021/12/30 09:29:17;;;;;;;;;4.33;2.00;;;;;15.94;73.46;101778.13;5099474;27;46151;-75
2021/12/30 09:31:45;;;;;;;;;9.33;4.00;;;;;15.95;73.30;101785.22;5081014;27;45605;-75
2021/12/30 09:34:10;;;;;;;;;7.67;2.67;;;;;15.97;73.74;101783.44;5099467;27;45442;-75
2021/12/30 09:36:36;;;;;;;;;7.33;3.67;;;;;15.97;73.31;101783.44;5099045;27;52014;-75
2021/12/30 09:39:04;;;;;;;;;5.00;3.00;;;;;15.97;73.37;101778.13;5080876;27;46528;-76
2021/12/30 09:41:29;;;;;;;;;3.00;3.00;;;;;16.03;73.27;101787.91;5099238;27;45245;-75
2021/12/30 09:43:55;;;;;;;;;5.33;2.33;;;;;16.06;72.95;101790.59;5099024;27;57419;-75
2021/12/30 09:46:20;;;;;;;;;4.67;2.00;;;;;16.10;73.03;101788.84;5098946;27;52496;-76
2021/12/30 09:48:45;;;;;;;;;3.00;2.00;;;;;16.11;72.73;101798.63;5080979;27;46307;-76
2021/12/30 09:51:11;;;;;;;;;9.67;3.00;;;;;16.16;72.81;101783.53;5098875;27;45346;-77
2021/12/30 09:53:36;;;;;;;;;4.33;3.33;;;;;16.15;73.01;101790.63;5099377;27;45334;-76
2021/12/30 09:56:02;;;;;;;;;3.67;3.67;;;;;16.19;72.92;101794.19;5099369;27;45518;-75
2021/12/30 09:58:28;;;;;;;;;6.67;2.00;;;;;16.26;72.69;101800.44;5098806;27;46444;-75
2021/12/30 10:00:54;;;;;;;;;3.00;3.00;;;;;16.28;72.33;101799.56;5098840;27;45296;-75
2021/12/30 10:03:20;;;;;;;;;3.67;2.00;;;;;16.32;72.68;101801.34;5098906;27;45346;-75
2021/12/30 10:05:45;;;;;;;;;6.33;2.00;;;;;16.34;72.34;101804.00;5099119;27;45198;-76
2021/12/30 10:08:13;;;;;;;;;8.00;4.00;;;;;16.39;72.44;101800.47;5098943;27;45627;-75
2021/12/30 10:10:39;;;;;;;;;4.00;2.33;;;;;16.44;72.17;101808.47;5098511;27;45354;-75
2021/12/30 10:13:14;;;;;;;;;5.67;3.00;;;;;16.48;72.36;101804.94;5098763;27;45367;-75
2021/12/30 10:15:51;;;;;;;;;7.67;4.00;;;;;16.50;72.01;101809.38;5098452;27;45515;-75
2021/12/30 10:18:18;;;;;;;;;6.00;3.00;;;;;16.55;72.15;101800.50;5098634;27;47600;-77
2021/12/30 10:20:43;;;;;;;;;7.00;4.67;;;;;16.61;71.84;101808.50;5098399;27;45328;-76
2021/12/30 10:23:12;;;;;;;;;6.67;3.67;;;;;16.59;71.89;101810.31;5098585;27;45360;-76
2021/12/30 10:25:40;;;;;;;;;4.00;2.67;;;;;16.61;71.86;101801.41;5098950;27;45355;-75
2021/12/30 10:28:25;;;;;;;;;5.33;2.00;;;;;16.67;71.81;101813.84;5098617;27;46743;-75
2021/12/30 10:31:14;;;;;;;;;5.67;4.00;;;;;16.67;71.42;101811.19;5098516;27;45274;-75
2021/12/30 10:33:52;;;;;;;;;6.00;2.67;;;;;16.71;71.69;101808.56;5098492;27;45381;-76
2021/12/30 10:36:26;;;;;;;;;3.33;1.67;;;;;16.66;71.50;101793.41;5098691;27;45507;-75
2021/12/30 10:38:52;;;;;;;;;5.67;2.33;;;;;16.70;71.68;101801.41;5098406;27;45610;-76
2021/12/30 10:41:21;;;;;;;;;6.67;2.00;;;;;16.70;71.46;101798.75;5098304;27;45378;-75
2021/12/30 10:43:51;;;;;;;;;6.67;2.33;;;;;16.72;71.29;101799.69;5100690;27;45295;-75
2021/12/30 10:46:27;;;;;;;;;4.00;3.00;;;;;16.74;71.35;101792.56;5081502;27;45397;-76
2021/12/30 10:49:05;;;;;;;;;5.00;1.67;;;;;16.82;71.48;101799.69;5098189;27;47607;-76
2021/12/30 10:51:42;;;;;;;;;5.00;3.33;;;;;16.86;70.83;101799.69;5098056;27;45430;-75
2021/12/30 10:54:25;;;;;;;;;5.33;2.00;;;;;16.88;70.30;101800.56;5098191;27;45229;-76
2021/12/30 10:57:05;;;;;;;;;2.00;2.00;;;;;16.88;71.26;101794.34;5098347;27;45263;-76
2021/12/30 10:59:40;;;;;;;;;2.00;2.00;;;;;16.86;71.03;101781.03;5098165;27;47122;-75
2021/12/30 11:02:17;;;;;;;;;6.00;2.00;;;;;16.95;70.85;101788.16;5098315;27;45512;-76
2021/12/30 11:04:53;;;;;;;;;4.00;2.33;;;;;16.98;71.12;101791.69;5097897;27;45385;-76
2021/12/30 11:07:27;;;;;;;;;4.67;3.00;;;;;17.00;70.95;101799.72;5098333;27;45573;-75
2021/12/30 11:09:55;;;;;;;;;8.33;2.00;;;;;17.01;71.03;101797.03;5098029;27;46338;-76
2021/12/30 11:12:29;;;;;;;;;3.33;2.00;;;;;17.05;70.30;101792.59;5097912;27;45332;-77
2021/12/30 11:15:04;;;;;;;;;;;;;;;;;;;;;
2021/12/30 11:17:34;;;;;;;;;3.33;2.00;;;;;17.07;70.73;101809.47;5097073;27;65706;-75
2021/12/30 11:20:01;;;;;;;;;6.00;3.00;;;;;17.09;70.93;101793.47;5098013;27;45801;-77
2021/12/30 11:22:29;;;;;;;;;9.67;2.67;;;;;17.13;70.33;101797.91;5097431;27;45492;-76
2021/12/30 11:24:58;;;;;;;;;1.00;1.00;;;;;17.18;70.23;101796.13;5097922;27;45354;-76
2021/12/30 11:27:24;;;;;;;;;3.33;1.67;;;;;17.14;70.43;101797.91;5097339;27;45232;-75